UPS285 ESMS-EDDK
Flight info
| Callsign | UPS285 |
|---|---|
| Flight time | 1h 4m |
| Altitude | 38000 |
| Route | DISGO DCT OLPIB DCT KOKOR DCT RAMAR DCT LARBU Z189 RUNER T858 KOPAG |
| Aircraft | MD11/H-SDE1E2E3FGHIJ2J3J4J5M1RWXY/LB1D1 |
Departure
| Time | 2026-05-04 18:16 |
|---|---|
| Airport | Malmö Sturup Airport (ESMS) |
Arrival
| Time | 2026-05-04 19:21 |
|---|---|
| Airport | Cologne Bonn Airport (EDDK) |
| Time | Latitude | Longitude | Altitude | Speed | Heading |
|---|---|---|---|---|---|
| 2026-05-04 17:41 | 55.53878 | 13.36997 | 239 ft | 0 kts | 173° |
| 2026-05-04 18:03 | 55.53879 | 13.36997 | 238 ft | 2 kts | 173° |
| 2026-05-04 18:03 | 55.53902 | 13.36992 | 238 ft | 2 kts | 173° |
| 2026-05-04 18:04 | 55.53925 | 13.36987 | 238 ft | 4 kts | 161° |
| 2026-05-04 18:04 | 55.53944 | 13.36971 | 238 ft | 4 kts | 122° |
| 2026-05-04 18:04 | 55.53946 | 13.36903 | 238 ft | 1 kts | 83° |
| 2026-05-04 18:09 | 55.53949 | 13.36951 | 238 ft | 6 kts | 83° |
| 2026-05-04 18:10 | 55.53956 | 13.37054 | 238 ft | 9 kts | 83° |
| 2026-05-04 18:10 | 55.53963 | 13.37154 | 239 ft | 8 kts | 83° |
| 2026-05-04 18:10 | 55.53958 | 13.37226 | 239 ft | 4 kts | 115° |
| 2026-05-04 18:10 | 55.53939 | 13.37253 | 239 ft | 4 kts | 150° |
| 2026-05-04 18:11 | 55.53898 | 13.37269 | 239 ft | 8 kts | 172° |
| 2026-05-04 18:11 | 55.53821 | 13.37287 | 239 ft | 14 kts | 174° |
| 2026-05-04 18:11 | 55.53710 | 13.37309 | 239 ft | 19 kts | 173° |
| 2026-05-04 18:11 | 55.53569 | 13.37340 | 239 ft | 21 kts | 173° |
| 2026-05-04 18:12 | 55.53429 | 13.37369 | 239 ft | 19 kts | 173° |
| 2026-05-04 18:12 | 55.53299 | 13.37395 | 239 ft | 18 kts | 173° |
| 2026-05-04 18:12 | 55.53183 | 13.37418 | 239 ft | 16 kts | 174° |
| 2026-05-04 18:12 | 55.53078 | 13.37440 | 239 ft | 14 kts | 173° |
| 2026-05-04 18:13 | 55.52983 | 13.37460 | 239 ft | 14 kts | 173° |
| 2026-05-04 18:13 | 55.52875 | 13.37482 | 239 ft | 18 kts | 173° |
| 2026-05-04 18:13 | 55.52589 | 13.37540 | 239 ft | 21 kts | 173° |
| 2026-05-04 18:14 | 55.52451 | 13.37572 | 239 ft | 16 kts | 167° |
| 2026-05-04 18:14 | 55.52379 | 13.37657 | 239 ft | 14 kts | 141° |
| 2026-05-04 18:14 | 55.52318 | 13.37793 | 242 ft | 12 kts | 104° |
| 2026-05-04 18:15 | 55.52336 | 13.37881 | 246 ft | 3 kts | 22° |
| 2026-05-04 18:15 | 55.52364 | 13.37881 | 246 ft | 11 kts | 355° |
| 2026-05-04 18:15 | 55.52758 | 13.37799 | 247 ft | 103 kts | 353° |
| 2026-05-04 18:16 | 55.53743 | 13.37601 | 315 ft | 170 kts | 351° |
| 2026-05-04 18:16 | 55.54957 | 13.37349 | 1200 ft | 175 kts | 349° |
| 2026-05-04 18:16 | 55.56150 | 13.37075 | 2407 ft | 172 kts | 348° |
| 2026-05-04 18:17 | 55.58701 | 13.36243 | 3872 ft | 206 kts | 331° |
| 2026-05-04 18:17 | 55.59798 | 13.34706 | 4868 ft | 203 kts | 303° |
| 2026-05-04 18:17 | 55.60012 | 13.29883 | 6167 ft | 208 kts | 255° |
| 2026-05-04 18:18 | 55.59556 | 13.27441 | 6535 ft | 210 kts | 253° |
| 2026-05-04 18:18 | 55.59076 | 13.25018 | 7345 ft | 209 kts | 252° |
| 2026-05-04 18:18 | 55.58497 | 13.22635 | 8083 ft | 216 kts | 242° |
| 2026-05-04 18:18 | 55.57390 | 13.20596 | 8262 ft | 251 kts | 213° |
| 2026-05-04 18:19 | 55.53695 | 13.19620 | 9695 ft | 286 kts | 185° |
| 2026-05-04 18:19 | 55.51689 | 13.19631 | 10061 ft | 292 kts | 184° |
| 2026-05-04 18:19 | 55.49571 | 13.19662 | 10448 ft | 317 kts | 184° |
| 2026-05-04 18:20 | 55.47280 | 13.19686 | 10800 ft | 343 kts | 184° |
| 2026-05-04 18:20 | 55.44819 | 13.19706 | 10918 ft | 358 kts | 184° |
| 2026-05-04 18:20 | 55.42318 | 13.19729 | 10935 ft | 360 kts | 184° |
| 2026-05-04 18:20 | 55.39811 | 13.19747 | 10938 ft | 360 kts | 184° |
| 2026-05-04 18:21 | 55.37306 | 13.19758 | 10941 ft | 360 kts | 184° |
| 2026-05-04 18:21 | 55.34805 | 13.19763 | 10941 ft | 360 kts | 184° |
| 2026-05-04 18:21 | 55.32293 | 13.19763 | 10942 ft | 360 kts | 184° |
| 2026-05-04 18:21 | 55.29784 | 13.19760 | 10942 ft | 360 kts | 184° |
| 2026-05-04 18:22 | 55.27326 | 13.19548 | 10938 ft | 357 kts | 191° |
| 2026-05-04 18:22 | 55.24924 | 13.18599 | 10941 ft | 351 kts | 203° |
| 2026-05-04 18:22 | 55.22765 | 13.16700 | 10943 ft | 346 kts | 218° |
| 2026-05-04 18:22 | 55.20960 | 13.13961 | 10946 ft | 342 kts | 229° |
| 2026-05-04 18:23 | 55.19400 | 13.10832 | 10948 ft | 341 kts | 233° |
| 2026-05-04 18:23 | 55.17912 | 13.07606 | 10948 ft | 341 kts | 233° |
| 2026-05-04 18:23 | 55.16441 | 13.04353 | 10946 ft | 340 kts | 235° |
| 2026-05-04 18:23 | 55.15118 | 13.00937 | 10954 ft | 340 kts | 242° |
| 2026-05-04 18:24 | 55.14142 | 12.97203 | 11971 ft | 337 kts | 249° |
| 2026-05-04 18:24 | 55.12950 | 12.93646 | 12883 ft | 343 kts | 231° |
| 2026-05-04 18:24 | 55.11152 | 12.90848 | 13773 ft | 352 kts | 219° |
| 2026-05-04 18:24 | 55.09098 | 12.88427 | 14553 ft | 357 kts | 216° |
| 2026-05-04 18:25 | 55.06975 | 12.86109 | 15313 ft | 362 kts | 215° |
| 2026-05-04 18:25 | 55.04813 | 12.83797 | 16087 ft | 366 kts | 215° |
| 2026-05-04 18:25 | 55.02642 | 12.81488 | 16824 ft | 370 kts | 214° |
| 2026-05-04 18:25 | 55.00429 | 12.79137 | 17580 ft | 375 kts | 214° |
| 2026-05-04 18:26 | 54.98190 | 12.76759 | 18291 ft | 379 kts | 214° |
| 2026-05-04 18:26 | 54.95929 | 12.74360 | 18916 ft | 382 kts | 214° |
| 2026-05-04 18:26 | 54.93652 | 12.71949 | 19554 ft | 385 kts | 214° |
| 2026-05-04 18:26 | 54.91379 | 12.69554 | 20164 ft | 388 kts | 214° |
| 2026-05-04 18:27 | 54.89028 | 12.67087 | 20791 ft | 391 kts | 214° |
| 2026-05-04 18:27 | 54.86725 | 12.64683 | 21404 ft | 394 kts | 214° |
| 2026-05-04 18:27 | 54.84368 | 12.62244 | 22102 ft | 394 kts | 215° |
| 2026-05-04 18:27 | 54.81962 | 12.59808 | 22808 ft | 397 kts | 215° |
| 2026-05-04 18:28 | 54.79555 | 12.57412 | 23492 ft | 400 kts | 215° |
| 2026-05-04 18:28 | 54.77312 | 12.54741 | 24012 ft | 394 kts | 227° |
| 2026-05-04 18:28 | 54.75537 | 12.51184 | 24549 ft | 392 kts | 239° |
| 2026-05-04 18:28 | 54.74149 | 12.47107 | 25119 ft | 393 kts | 244° |
| 2026-05-04 18:29 | 54.72965 | 12.42864 | 25690 ft | 392 kts | 252° |
| 2026-05-04 18:29 | 54.72383 | 12.38266 | 26361 ft | 392 kts | 265° |
| 2026-05-04 18:29 | 54.72494 | 12.33525 | 26828 ft | 397 kts | 276° |
| 2026-05-04 18:29 | 54.73090 | 12.28850 | 27277 ft | 400 kts | 282° |
| 2026-05-04 18:30 | 54.74622 | 12.19546 | 28501 ft | 401 kts | 277° |
| 2026-05-04 18:30 | 54.74876 | 12.14763 | 29108 ft | 399 kts | 265° |
| 2026-05-04 18:30 | 54.74423 | 12.10040 | 29690 ft | 400 kts | 253° |
| 2026-05-04 18:31 | 54.73302 | 12.05629 | 30197 ft | 404 kts | 241° |
| 2026-05-04 18:31 | 54.71597 | 12.01705 | 30546 ft | 414 kts | 230° |
| 2026-05-04 18:31 | 54.69407 | 11.98393 | 30934 ft | 422 kts | 222° |
| 2026-05-04 18:31 | 54.67021 | 11.95482 | 31306 ft | 426 kts | 219° |
| 2026-05-04 18:32 | 54.64565 | 11.92612 | 31786 ft | 426 kts | 219° |
| 2026-05-04 18:32 | 54.62127 | 11.89693 | 32224 ft | 426 kts | 220° |
| 2026-05-04 18:32 | 54.59725 | 11.86706 | 32639 ft | 426 kts | 220° |
| 2026-05-04 18:32 | 54.57340 | 11.83653 | 33050 ft | 427 kts | 221° |
| 2026-05-04 18:33 | 54.54969 | 11.80564 | 33440 ft | 428 kts | 221° |
| 2026-05-04 18:33 | 54.52601 | 11.77451 | 33829 ft | 428 kts | 221° |
| 2026-05-04 18:33 | 54.50237 | 11.74336 | 34167 ft | 429 kts | 221° |
| 2026-05-04 18:33 | 54.47851 | 11.71224 | 34456 ft | 431 kts | 220° |
| 2026-05-04 18:34 | 54.45353 | 11.68324 | 34747 ft | 434 kts | 216° |
| 2026-05-04 18:34 | 54.43652 | 11.66513 | 34921 ft | 436 kts | 215° |
| 2026-05-04 18:34 | 54.41037 | 11.63842 | 35181 ft | 438 kts | 214° |
| 2026-05-04 18:34 | 54.38400 | 11.61198 | 35463 ft | 439 kts | 214° |
| 2026-05-04 18:35 | 54.35763 | 11.58556 | 35743 ft | 439 kts | 214° |
| 2026-05-04 18:35 | 54.33122 | 11.55898 | 36021 ft | 440 kts | 214° |
| 2026-05-04 18:35 | 54.30477 | 11.53225 | 36295 ft | 441 kts | 214° |
| 2026-05-04 18:35 | 54.27829 | 11.50543 | 36547 ft | 442 kts | 214° |
| 2026-05-04 18:36 | 54.25182 | 11.47860 | 36820 ft | 442 kts | 214° |
| 2026-05-04 18:36 | 54.22530 | 11.45173 | 37082 ft | 443 kts | 214° |
| 2026-05-04 18:36 | 54.19879 | 11.42490 | 37313 ft | 444 kts | 214° |
| 2026-05-04 18:36 | 54.17217 | 11.39800 | 37553 ft | 444 kts | 213° |
| 2026-05-04 18:37 | 54.14587 | 11.37146 | 37800 ft | 444 kts | 213° |
| 2026-05-04 18:37 | 54.11886 | 11.34426 | 37943 ft | 446 kts | 213° |
| 2026-05-04 18:37 | 54.09252 | 11.31778 | 37961 ft | 446 kts | 213° |
| 2026-05-04 18:38 | 54.03905 | 11.26414 | 37967 ft | 446 kts | 213° |
| 2026-05-04 18:38 | 53.98565 | 11.21075 | 37969 ft | 446 kts | 213° |
| 2026-05-04 18:39 | 53.93219 | 11.15744 | 37967 ft | 445 kts | 213° |
| 2026-05-04 18:39 | 53.87884 | 11.10441 | 37966 ft | 445 kts | 213° |
| 2026-05-04 18:40 | 53.82540 | 11.05144 | 37966 ft | 445 kts | 213° |
| 2026-05-04 18:40 | 53.77213 | 10.99880 | 37972 ft | 445 kts | 213° |
| 2026-05-04 18:41 | 53.71838 | 10.94623 | 37958 ft | 446 kts | 213° |
| 2026-05-04 18:41 | 53.66484 | 10.89313 | 37964 ft | 446 kts | 213° |
| 2026-05-04 18:42 | 53.61266 | 10.84078 | 37965 ft | 446 kts | 213° |
| 2026-05-04 18:42 | 53.55935 | 10.78732 | 37962 ft | 446 kts | 213° |
| 2026-05-04 18:43 | 53.50596 | 10.73397 | 37946 ft | 446 kts | 213° |
| 2026-05-04 18:43 | 53.45273 | 10.68098 | 37953 ft | 444 kts | 213° |
| 2026-05-04 18:44 | 53.39955 | 10.62819 | 37955 ft | 444 kts | 213° |
| 2026-05-04 18:44 | 53.34637 | 10.57555 | 37957 ft | 444 kts | 213° |
| 2026-05-04 18:45 | 53.29321 | 10.52308 | 37956 ft | 444 kts | 213° |
| 2026-05-04 18:45 | 53.24040 | 10.47112 | 37950 ft | 441 kts | 213° |
| 2026-05-04 18:46 | 53.18758 | 10.41930 | 37949 ft | 440 kts | 213° |
| 2026-05-04 18:46 | 53.13477 | 10.36763 | 37949 ft | 440 kts | 213° |
| 2026-05-04 18:47 | 53.08193 | 10.31608 | 37944 ft | 440 kts | 213° |
| 2026-05-04 18:47 | 53.02905 | 10.26465 | 37963 ft | 440 kts | 213° |
| 2026-05-04 18:48 | 52.97606 | 10.21350 | 37966 ft | 440 kts | 212° |
| 2026-05-04 18:48 | 52.92292 | 10.16258 | 37969 ft | 440 kts | 212° |
| 2026-05-04 18:49 | 52.86990 | 10.11162 | 37968 ft | 441 kts | 212° |
| 2026-05-04 18:49 | 52.81675 | 10.06053 | 37947 ft | 441 kts | 212° |
| 2026-05-04 18:50 | 52.76394 | 10.00993 | 37054 ft | 433 kts | 212° |
| 2026-05-04 18:50 | 52.73800 | 9.98511 | 36684 ft | 434 kts | 212° |
| 2026-05-04 18:50 | 52.71186 | 9.96012 | 36291 ft | 435 kts | 212° |
| 2026-05-04 18:50 | 52.68601 | 9.93545 | 36039 ft | 433 kts | 212° |
| 2026-05-04 18:51 | 52.65992 | 9.91060 | 35981 ft | 433 kts | 212° |
| 2026-05-04 18:51 | 52.60769 | 9.86094 | 35967 ft | 433 kts | 212° |
| 2026-05-04 18:52 | 52.55543 | 9.81138 | 35962 ft | 434 kts | 212° |
| 2026-05-04 18:52 | 52.50308 | 9.76189 | 35966 ft | 434 kts | 212° |
| 2026-05-04 18:53 | 52.45061 | 9.71242 | 35966 ft | 434 kts | 212° |
| 2026-05-04 18:53 | 52.39814 | 9.66309 | 35966 ft | 434 kts | 212° |
| 2026-05-04 18:54 | 52.34566 | 9.61388 | 35957 ft | 434 kts | 212° |
| 2026-05-04 18:54 | 52.29321 | 9.56483 | 35968 ft | 434 kts | 212° |
| 2026-05-04 18:55 | 52.24067 | 9.51622 | 35967 ft | 434 kts | 212° |
| 2026-05-04 18:55 | 52.16240 | 9.44391 | 35959 ft | 434 kts | 212° |
| 2026-05-04 18:56 | 52.10987 | 9.39531 | 35954 ft | 433 kts | 212° |
| 2026-05-04 18:56 | 52.05741 | 9.34686 | 35958 ft | 433 kts | 212° |
| 2026-05-04 18:57 | 52.00496 | 9.29853 | 35958 ft | 433 kts | 212° |
| 2026-05-04 18:57 | 51.95280 | 9.25062 | 35943 ft | 433 kts | 212° |
| 2026-05-04 18:58 | 51.92648 | 9.22650 | 35341 ft | 433 kts | 211° |
| 2026-05-04 18:58 | 51.90041 | 9.20255 | 34734 ft | 429 kts | 212° |
| 2026-05-04 18:58 | 51.87600 | 9.17555 | 34133 ft | 425 kts | 221° |
| 2026-05-04 18:58 | 51.85475 | 9.14263 | 33468 ft | 422 kts | 228° |
| 2026-05-04 18:59 | 51.83542 | 9.10695 | 32793 ft | 423 kts | 230° |
| 2026-05-04 18:59 | 51.81660 | 9.07016 | 32136 ft | 425 kts | 231° |
| 2026-05-04 18:59 | 51.79776 | 9.03323 | 31497 ft | 427 kts | 231° |
| 2026-05-04 18:59 | 51.77866 | 8.99633 | 30865 ft | 429 kts | 230° |
| 2026-05-04 19:00 | 51.75929 | 8.95949 | 30239 ft | 431 kts | 230° |
| 2026-05-04 19:00 | 51.73975 | 8.92276 | 29553 ft | 430 kts | 230° |
| 2026-05-04 19:00 | 51.72024 | 8.88636 | 28870 ft | 428 kts | 230° |
| 2026-05-04 19:00 | 51.70078 | 8.85022 | 28173 ft | 425 kts | 229° |
| 2026-05-04 19:01 | 51.68146 | 8.81442 | 27511 ft | 423 kts | 229° |
| 2026-05-04 19:01 | 51.66218 | 8.77877 | 26864 ft | 421 kts | 229° |
| 2026-05-04 19:01 | 51.64320 | 8.74369 | 26296 ft | 418 kts | 229° |
| 2026-05-04 19:01 | 51.62383 | 8.70885 | 25938 ft | 418 kts | 226° |
| 2026-05-04 19:02 | 51.60177 | 8.67852 | 25565 ft | 417 kts | 216° |
| 2026-05-04 19:02 | 51.57723 | 8.65353 | 25200 ft | 418 kts | 211° |
| 2026-05-04 19:02 | 51.55182 | 8.63092 | 24788 ft | 417 kts | 210° |
| 2026-05-04 19:02 | 51.52621 | 8.60898 | 24425 ft | 417 kts | 209° |
| 2026-05-04 19:03 | 51.50067 | 8.58702 | 24114 ft | 415 kts | 210° |
| 2026-05-04 19:03 | 51.47533 | 8.56489 | 24011 ft | 416 kts | 210° |
| 2026-05-04 19:03 | 51.44990 | 8.54240 | 23996 ft | 417 kts | 210° |
| 2026-05-04 19:03 | 51.42455 | 8.51979 | 23985 ft | 417 kts | 210° |
| 2026-05-04 19:04 | 51.39872 | 8.49837 | 23891 ft | 420 kts | 206° |
| 2026-05-04 19:04 | 51.37149 | 8.48157 | 23523 ft | 419 kts | 199° |
| 2026-05-04 19:04 | 51.34320 | 8.47027 | 23111 ft | 419 kts | 192° |
| 2026-05-04 19:04 | 51.31427 | 8.46462 | 22701 ft | 419 kts | 185° |
| 2026-05-04 19:05 | 51.28524 | 8.46470 | 22301 ft | 418 kts | 178° |
| 2026-05-04 19:05 | 51.25635 | 8.46936 | 21899 ft | 416 kts | 175° |
| 2026-05-04 19:05 | 51.22783 | 8.47582 | 21507 ft | 413 kts | 173° |
| 2026-05-04 19:05 | 51.19949 | 8.48261 | 21132 ft | 410 kts | 175° |
| 2026-05-04 19:06 | 51.17120 | 8.48562 | 20735 ft | 404 kts | 184° |
| 2026-05-04 19:06 | 51.14402 | 8.47899 | 20367 ft | 398 kts | 198° |
| 2026-05-04 19:06 | 51.11907 | 8.46063 | 20005 ft | 394 kts | 214° |
| 2026-05-04 19:06 | 51.09862 | 8.43201 | 19640 ft | 392 kts | 230° |
| 2026-05-04 19:07 | 51.08425 | 8.39540 | 19271 ft | 391 kts | 245° |
| 2026-05-04 19:07 | 51.07714 | 8.35363 | 18924 ft | 393 kts | 261° |
| 2026-05-04 19:07 | 51.07563 | 8.31023 | 18574 ft | 393 kts | 265° |
| 2026-05-04 19:07 | 51.07470 | 8.26685 | 18207 ft | 392 kts | 265° |
| 2026-05-04 19:08 | 51.07385 | 8.22372 | 17802 ft | 390 kts | 265° |
| 2026-05-04 19:08 | 51.07300 | 8.18067 | 17408 ft | 388 kts | 265° |
| 2026-05-04 19:08 | 51.07197 | 8.13795 | 17025 ft | 385 kts | 263° |
| 2026-05-04 19:08 | 51.06843 | 8.09590 | 16633 ft | 381 kts | 256° |
| 2026-05-04 19:09 | 51.06146 | 8.05549 | 16262 ft | 378 kts | 248° |
| 2026-05-04 19:09 | 51.05120 | 8.01732 | 15861 ft | 374 kts | 241° |
| 2026-05-04 19:09 | 51.03807 | 7.98183 | 15444 ft | 371 kts | 235° |
| 2026-05-04 19:09 | 51.02370 | 7.94824 | 14877 ft | 364 kts | 233° |
| 2026-05-04 19:10 | 51.00911 | 7.91554 | 14279 ft | 364 kts | 233° |
| 2026-05-04 19:10 | 50.99450 | 7.88319 | 13876 ft | 351 kts | 233° |
| 2026-05-04 19:10 | 50.98060 | 7.85249 | 13301 ft | 339 kts | 233° |
| 2026-05-04 19:10 | 50.96627 | 7.82409 | 12881 ft | 322 kts | 226° |
| 2026-05-04 19:11 | 50.95034 | 7.80023 | 12498 ft | 308 kts | 220° |
| 2026-05-04 19:11 | 50.93443 | 7.77936 | 12111 ft | 286 kts | 218° |
| 2026-05-04 19:11 | 50.91946 | 7.76028 | 11750 ft | 272 kts | 218° |
| 2026-05-04 19:11 | 50.90488 | 7.74175 | 11023 ft | 267 kts | 218° |
| 2026-05-04 19:12 | 50.89045 | 7.72341 | 10352 ft | 264 kts | 218° |
| 2026-05-04 19:12 | 50.86228 | 7.68749 | 8862 ft | 256 kts | 218° |
| 2026-05-04 19:12 | 50.84845 | 7.66982 | 8083 ft | 254 kts | 218° |
| 2026-05-04 19:13 | 50.83471 | 7.65230 | 7355 ft | 253 kts | 218° |
| 2026-05-04 19:13 | 50.82101 | 7.63481 | 6961 ft | 251 kts | 218° |
| 2026-05-04 19:13 | 50.80759 | 7.61762 | 6270 ft | 249 kts | 218° |
| 2026-05-04 19:13 | 50.79414 | 7.60042 | 5479 ft | 249 kts | 218° |
| 2026-05-04 19:14 | 50.78056 | 7.58317 | 4754 ft | 253 kts | 218° |
| 2026-05-04 19:14 | 50.76704 | 7.56610 | 4514 ft | 253 kts | 218° |
| 2026-05-04 19:14 | 50.75312 | 7.54868 | 4371 ft | 255 kts | 218° |
| 2026-05-04 19:14 | 50.73916 | 7.53129 | 4241 ft | 255 kts | 218° |
| 2026-05-04 19:15 | 50.72520 | 7.51399 | 4115 ft | 254 kts | 218° |
| 2026-05-04 19:15 | 50.71189 | 7.49657 | 3967 ft | 244 kts | 226° |
| 2026-05-04 19:15 | 50.70197 | 7.47529 | 3845 ft | 238 kts | 242° |
| 2026-05-04 19:15 | 50.69842 | 7.45015 | 3692 ft | 237 kts | 271° |
| 2026-05-04 19:16 | 50.70281 | 7.42515 | 3589 ft | 240 kts | 291° |
| 2026-05-04 19:16 | 50.70985 | 7.40111 | 3468 ft | 241 kts | 293° |
| 2026-05-04 19:16 | 50.71704 | 7.37716 | 3339 ft | 240 kts | 293° |
| 2026-05-04 19:16 | 50.72536 | 7.35456 | 3204 ft | 241 kts | 307° |
| 2026-05-04 19:17 | 50.73696 | 7.33527 | 3089 ft | 242 kts | 315° |
| 2026-05-04 19:17 | 50.74939 | 7.31777 | 3027 ft | 232 kts | 317° |
| 2026-05-04 19:17 | 50.76105 | 7.30167 | 2816 ft | 215 kts | 316° |
| 2026-05-04 19:17 | 50.77155 | 7.28649 | 2533 ft | 199 kts | 315° |
| 2026-05-04 19:18 | 50.78140 | 7.27216 | 2278 ft | 186 kts | 316° |
| 2026-05-04 19:18 | 50.79051 | 7.25900 | 2004 ft | 168 kts | 316° |
| 2026-05-04 19:18 | 50.79895 | 7.24679 | 1801 ft | 163 kts | 316° |
| 2026-05-04 19:18 | 50.80730 | 7.23473 | 1616 ft | 162 kts | 317° |
| 2026-05-04 19:19 | 50.81563 | 7.22270 | 1383 ft | 162 kts | 317° |
| 2026-05-04 19:19 | 50.82390 | 7.21068 | 1189 ft | 161 kts | 317° |
| 2026-05-04 19:19 | 50.82935 | 7.20267 | 1014 ft | 161 kts | 317° |
| 2026-05-04 19:19 | 50.83754 | 7.19081 | 773 ft | 160 kts | 318° |
| 2026-05-04 19:20 | 50.84586 | 7.17918 | 591 ft | 161 kts | 317° |
| 2026-05-04 19:20 | 50.85407 | 7.16729 | 391 ft | 160 kts | 318° |
| 2026-05-04 19:20 | 50.86180 | 7.15604 | 286 ft | 135 kts | 316° |
| 2026-05-04 19:20 | 50.86785 | 7.14736 | 265 ft | 101 kts | 316° |
| 2026-05-04 19:21 | 50.87198 | 7.14132 | 264 ft | 49 kts | 315° |
| 2026-05-04 19:21 | 50.87305 | 7.13845 | 258 ft | 23 kts | 287° |
| 2026-05-04 19:21 | 50.87328 | 7.13635 | 253 ft | 13 kts | 281° |
| 2026-05-04 19:21 | 50.87342 | 7.13515 | 246 ft | 6 kts | 278° |
| 2026-05-04 19:22 | 50.87339 | 7.13451 | 245 ft | 5 kts | 250° |
| 2026-05-04 19:22 | 50.87323 | 7.13424 | 244 ft | 3 kts | 219° |
| 2026-05-04 19:22 | 50.87302 | 7.13413 | 244 ft | 5 kts | 189° |
| 2026-05-04 19:22 | 50.87276 | 7.13421 | 243 ft | 4 kts | 153° |
| 2026-05-04 19:23 | 50.87248 | 7.13454 | 244 ft | 7 kts | 137° |
| 2026-05-04 19:23 | 50.87216 | 7.13502 | 245 ft | 5 kts | 138° |
| 2026-05-04 19:23 | 50.87190 | 7.13538 | 246 ft | 6 kts | 138° |
| 2026-05-04 19:23 | 50.87149 | 7.13597 | 247 ft | 10 kts | 137° |
| 2026-05-04 19:24 | 50.87088 | 7.13685 | 248 ft | 14 kts | 137° |
| 2026-05-04 19:24 | 50.87041 | 7.13747 | 250 ft | 3 kts | 164° |
| 2026-05-04 19:24 | 50.87017 | 7.13730 | 250 ft | 5 kts | 216° |
| 2026-05-04 19:24 | 50.86988 | 7.13685 | 250 ft | 2 kts | 227° |
| 2026-05-04 19:25 | 50.86981 | 7.13672 | 250 ft | 1 kts | 228° |
| 2026-05-04 19:25 | 50.86978 | 7.13666 | 250 ft | 0 kts | 228° |